Terminal Aerodrome Forecast
Issued by NWS

Home | Current Version | Previous Version | Text Only | Print | Product List | Glossary On
Versions: 1 2 3 4 5 6 7 8 9 10 11 12 13 14 15 16 17 18 19 20 21 22 23 24 25 26 27 28 29 30 31 32 33 34 35 36 37 38 39 40 41 42 43 44
000
FTUS44 KLIX 060155 AAA
TAFHDC
TAF AMD
KHDC 060155Z 0602/0624 12004KT 6SM BR VCSH OVC004
      TEMPO 0602/0604 3SM -SHRA SCT004 OVC017
     FM060400 15004KT 4SM BR OVC003
     FM060600 24011KT P6SM OVC008
     FM061200 27009KT P6SM BKN008
     FM062200 31005KT P6SM BKN035=

USA.gov is the U.S. government's official web portal to all federal, state and local government web resources and services.